sensor_id;sensor_type;location;lat;lon;timestamp;P1;durP1;ratioP1;P2;durP2;ratioP2
43606;SDS011;29197;44.788;10.366;2023-02-24T00:01:47;38.83;;;24.08;;
43606;SDS011;29197;44.788;10.366;2023-02-24T00:04:38;47.90;;;28.05;;
43606;SDS011;29197;44.788;10.366;2023-02-24T00:07:28;44.90;;;26.98;;
43606;SDS011;29197;44.788;10.366;2023-02-24T00:10:17;40.58;;;24.75;;
43606;SDS011;29197;44.788;10.366;2023-02-24T00:13:07;40.28;;;23.63;;
43606;SDS011;29197;44.788;10.366;2023-02-24T00:15:58;47.40;;;27.20;;
43606;SDS011;29197;44.788;10.366;2023-02-24T00:18:48;47.60;;;29.10;;
43606;SDS011;29197;44.788;10.366;2023-02-24T00:21:36;49.22;;;29.63;;
43606;SDS011;29197;44.788;10.366;2023-02-24T00:24:27;39.10;;;23.85;;
43606;SDS011;29197;44.788;10.366;2023-02-24T00:27:16;42.42;;;26.27;;
43606;SDS011;29197;44.788;10.366;2023-02-24T00:30:05;46.35;;;27.60;;
43606;SDS011;29197;44.788;10.366;2023-02-24T00:32:56;42.72;;;26.55;;
43606;SDS011;29197;44.788;10.366;2023-02-24T00:35:47;40.10;;;25.27;;
43606;SDS011;29197;44.788;10.366;2023-02-24T00:38:36;45.22;;;26.67;;
43606;SDS011;29197;44.788;10.366;2023-02-24T00:41:27;48.33;;;28.42;;
43606;SDS011;29197;44.788;10.366;2023-02-24T00:44:17;39.17;;;24.45;;
43606;SDS011;29197;44.788;10.366;2023-02-24T00:47:06;43.28;;;26.70;;
43606;SDS011;29197;44.788;10.366;2023-02-24T00:49:57;46.35;;;27.60;;
43606;SDS011;29197;44.788;10.366;2023-02-24T00:52:47;46.38;;;28.13;;
43606;SDS011;29197;44.788;10.366;2023-02-24T00:55:35;40.83;;;25.40;;
43606;SDS011;29197;44.788;10.366;2023-02-24T00:58:25;43.83;;;25.70;;
43606;SDS011;29197;44.788;10.366;2023-02-24T01:01:18;38.80;;;22.73;;
43606;SDS011;29197;44.788;10.366;2023-02-24T01:04:09;41.33;;;25.83;;
43606;SDS011;29197;44.788;10.366;2023-02-24T01:06:58;38.17;;;21.97;;
43606;SDS011;29197;44.788;10.366;2023-02-24T01:09:48;39.13;;;21.45;;
43606;SDS011;29197;44.788;10.366;2023-02-24T01:12:37;35.83;;;21.63;;
43606;SDS011;29197;44.788;10.366;2023-02-24T01:15:36;34.45;;;20.35;;
43606;SDS011;29197;44.788;10.366;2023-02-24T01:18:24;32.50;;;19.73;;
43606;SDS011;29197;44.788;10.366;2023-02-24T01:21:17;36.35;;;21.83;;
43606;SDS011;29197;44.788;10.366;2023-02-24T01:24:07;30.10;;;19.38;;
43606;SDS011;29197;44.788;10.366;2023-02-24T01:26:56;32.75;;;20.00;;
43606;SDS011;29197;44.788;10.366;2023-02-24T01:29:45;37.03;;;20.27;;
43606;SDS011;29197;44.788;10.366;2023-02-24T01:32:35;32.78;;;19.90;;
43606;SDS011;29197;44.788;10.366;2023-02-24T01:35:24;35.10;;;20.65;;
43606;SDS011;29197;44.788;10.366;2023-02-24T01:38:12;36.03;;;22.55;;
43606;SDS011;29197;44.788;10.366;2023-02-24T01:41:01;35.90;;;21.70;;
43606;SDS011;29197;44.788;10.366;2023-02-24T01:43:54;41.22;;;22.83;;
43606;SDS011;29197;44.788;10.366;2023-02-24T01:46:44;35.38;;;20.83;;
43606;SDS011;29197;44.788;10.366;2023-02-24T01:49:36;36.30;;;20.73;;
43606;SDS011;29197;44.788;10.366;2023-02-24T01:52:28;29.13;;;18.30;;
43606;SDS011;29197;44.788;10.366;2023-02-24T01:55:21;32.72;;;19.38;;
43606;SDS011;29197;44.788;10.366;2023-02-24T01:58:21;25.65;;;16.13;;
43606;SDS011;29197;44.788;10.366;2023-02-24T02:01:13;27.50;;;16.77;;
43606;SDS011;29197;44.788;10.366;2023-02-24T02:04:08;31.33;;;18.73;;
43606;SDS011;29197;44.788;10.366;2023-02-24T02:07:05;27.70;;;17.52;;
43606;SDS011;29197;44.788;10.366;2023-02-24T02:09:56;25.08;;;16.00;;
43606;SDS011;29197;44.788;10.366;2023-02-24T02:12:49;24.75;;;16.48;;
43606;SDS011;29197;44.788;10.366;2023-02-24T02:15:40;25.10;;;16.40;;
43606;SDS011;29197;44.788;10.366;2023-02-24T02:18:41;27.38;;;16.90;;
43606;SDS011;29197;44.788;10.366;2023-02-24T02:22:03;24.20;;;15.25;;
43606;SDS011;29197;44.788;10.366;2023-02-24T02:25:05;30.42;;;17.00;;
43606;SDS011;29197;44.788;10.366;2023-02-24T02:28:18;24.85;;;15.05;;
43606;SDS011;29197;44.788;10.366;2023-02-24T02:31:28;23.17;;;14.70;;
43606;SDS011;29197;44.788;10.366;2023-02-24T02:34:44;24.65;;;15.00;;
43606;SDS011;29197;44.788;10.366;2023-02-24T02:37:40;24.88;;;14.43;;
43606;SDS011;29197;44.788;10.366;2023-02-24T02:40:38;27.13;;;17.17;;
43606;SDS011;29197;44.788;10.366;2023-02-24T02:43:32;23.98;;;14.02;;
43606;SDS011;29197;44.788;10.366;2023-02-24T02:46:25;23.00;;;14.48;;
43606;SDS011;29197;44.788;10.366;2023-02-24T02:49:22;24.03;;;14.50;;
43606;SDS011;29197;44.788;10.366;2023-02-24T02:52:19;26.08;;;15.50;;
43606;SDS011;29197;44.788;10.366;2023-02-24T02:55:13;22.23;;;13.52;;
43606;SDS011;29197;44.788;10.366;2023-02-24T02:58:08;20.75;;;13.40;;
43606;SDS011;29197;44.788;10.366;2023-02-24T03:01:00;23.42;;;14.27;;
43606;SDS011;29197;44.788;10.366;2023-02-24T03:03:53;21.05;;;13.10;;
43606;SDS011;29197;44.788;10.366;2023-02-24T03:06:47;20.08;;;13.48;;
43606;SDS011;29197;44.788;10.366;2023-02-24T03:09:40;22.80;;;13.93;;
43606;SDS011;29197;44.788;10.366;2023-02-24T03:12:32;25.00;;;15.60;;
43606;SDS011;29197;44.788;10.366;2023-02-24T03:15:25;22.13;;;13.10;;
43606;SDS011;29197;44.788;10.366;2023-02-24T03:18:17;20.42;;;12.75;;
43606;SDS011;29197;44.788;10.366;2023-02-24T03:21:15;25.45;;;15.23;;
43606;SDS011;29197;44.788;10.366;2023-02-24T03:24:10;22.75;;;13.35;;
43606;SDS011;29197;44.788;10.366;2023-02-24T03:27:04;24.73;;;14.90;;
43606;SDS011;29197;44.788;10.366;2023-02-24T03:29:57;26.52;;;14.77;;
43606;SDS011;29197;44.788;10.366;2023-02-24T03:32:53;25.77;;;13.55;;
43606;SDS011;29197;44.788;10.366;2023-02-24T03:35:47;27.83;;;15.65;;
43606;SDS011;29197;44.788;10.366;2023-02-24T03:38:37;25.52;;;14.68;;
43606;SDS011;29197;44.788;10.366;2023-02-24T03:41:27;27.33;;;14.98;;
43606;SDS011;29197;44.788;10.366;2023-02-24T03:44:22;20.92;;;13.55;;
43606;SDS011;29197;44.788;10.366;2023-02-24T03:47:11;19.85;;;12.30;;
43606;SDS011;29197;44.788;10.366;2023-02-24T03:50:00;19.42;;;11.60;;
43606;SDS011;29197;44.788;10.366;2023-02-24T03:52:50;23.23;;;12.80;;
43606;SDS011;29197;44.788;10.366;2023-02-24T03:55:49;22.55;;;12.65;;
43606;SDS011;29197;44.788;10.366;2023-02-24T03:58:51;23.77;;;12.35;;
43606;SDS011;29197;44.788;10.366;2023-02-24T04:01:49;23.25;;;11.77;;
43606;SDS011;29197;44.788;10.366;2023-02-24T04:04:44;22.87;;;12.63;;
43606;SDS011;29197;44.788;10.366;2023-02-24T04:07:36;19.10;;;11.40;;
43606;SDS011;29197;44.788;10.366;2023-02-24T04:10:28;18.15;;;10.57;;
43606;SDS011;29197;44.788;10.366;2023-02-24T04:13:20;16.90;;;9.85;;
43606;SDS011;29197;44.788;10.366;2023-02-24T04:16:11;17.00;;;9.83;;
43606;SDS011;29197;44.788;10.366;2023-02-24T04:19:05;18.20;;;10.65;;
43606;SDS011;29197;44.788;10.366;2023-02-24T04:21:56;16.10;;;9.70;;
43606;SDS011;29197;44.788;10.366;2023-02-24T04:24:45;16.25;;;9.90;;
43606;SDS011;29197;44.788;10.366;2023-02-24T04:27:36;18.23;;;10.70;;
43606;SDS011;29197;44.788;10.366;2023-02-24T04:30:25;14.98;;;10.02;;
43606;SDS011;29197;44.788;10.366;2023-02-24T04:33:15;18.58;;;10.95;;
43606;SDS011;29197;44.788;10.366;2023-02-24T04:36:06;17.25;;;10.70;;
43606;SDS011;29197;44.788;10.366;2023-02-24T04:38:58;18.20;;;11.13;;
43606;SDS011;29197;44.788;10.366;2023-02-24T04:41:46;16.50;;;10.82;;
43606;SDS011;29197;44.788;10.366;2023-02-24T04:44:35;18.77;;;11.20;;
43606;SDS011;29197;44.788;10.366;2023-02-24T04:47:24;19.30;;;12.23;;
43606;SDS011;29197;44.788;10.366;2023-02-24T04:50:14;20.83;;;11.88;;
43606;SDS011;29197;44.788;10.366;2023-02-24T04:53:11;18.45;;;11.70;;
43606;SDS011;29197;44.788;10.366;2023-02-24T04:56:01;18.92;;;11.95;;
43606;SDS011;29197;44.788;10.366;2023-02-24T04:58:54;20.77;;;12.52;;
43606;SDS011;29197;44.788;10.366;2023-02-24T05:01:44;19.93;;;12.57;;
43606;SDS011;29197;44.788;10.366;2023-02-24T05:04:33;19.52;;;12.70;;
43606;SDS011;29197;44.788;10.366;2023-02-24T05:07:24;21.17;;;12.97;;
43606;SDS011;29197;44.788;10.366;2023-02-24T05:10:16;19.43;;;12.93;;
43606;SDS011;29197;44.788;10.366;2023-02-24T05:13:05;20.02;;;14.32;;
43606;SDS011;29197;44.788;10.366;2023-02-24T05:15:55;21.13;;;14.40;;
43606;SDS011;29197;44.788;10.366;2023-02-24T05:18:45;23.02;;;15.10;;
43606;SDS011;29197;44.788;10.366;2023-02-24T05:21:34;19.70;;;14.00;;
43606;SDS011;29197;44.788;10.366;2023-02-24T05:24:21;16.35;;;13.30;;
43606;SDS011;29197;44.788;10.366;2023-02-24T05:27:12;18.17;;;13.45;;
43606;SDS011;29197;44.788;10.366;2023-02-24T05:30:03;19.92;;;14.75;;
43606;SDS011;29197;44.788;10.366;2023-02-24T05:32:55;19.25;;;13.30;;
43606;SDS011;29197;44.788;10.366;2023-02-24T05:35:44;18.17;;;13.20;;
43606;SDS011;29197;44.788;10.366;2023-02-24T05:38:33;17.88;;;13.20;;
43606;SDS011;29197;44.788;10.366;2023-02-24T05:41:24;17.42;;;13.63;;
43606;SDS011;29197;44.788;10.366;2023-02-24T05:44:20;17.08;;;14.07;;
43606;SDS011;29197;44.788;10.366;2023-02-24T05:47:09;19.08;;;14.10;;
43606;SDS011;29197;44.788;10.366;2023-02-24T05:49:58;18.40;;;13.40;;
43606;SDS011;29197;44.788;10.366;2023-02-24T05:52:46;18.80;;;13.30;;
43606;SDS011;29197;44.788;10.366;2023-02-24T05:55:35;18.73;;;13.80;;
43606;SDS011;29197;44.788;10.366;2023-02-24T05:58:24;20.77;;;15.00;;
43606;SDS011;29197;44.788;10.366;2023-02-24T06:01:16;23.90;;;16.55;;
43606;SDS011;29197;44.788;10.366;2023-02-24T06:04:05;23.05;;;16.40;;
43606;SDS011;29197;44.788;10.366;2023-02-24T06:06:54;20.73;;;15.23;;
43606;SDS011;29197;44.788;10.366;2023-02-24T06:09:43;18.98;;;14.25;;
43606;SDS011;29197;44.788;10.366;2023-02-24T06:12:35;17.90;;;14.48;;
43606;SDS011;29197;44.788;10.366;2023-02-24T06:15:25;21.60;;;15.73;;
43606;SDS011;29197;44.788;10.366;2023-02-24T06:18:15;21.02;;;16.00;;
43606;SDS011;29197;44.788;10.366;2023-02-24T06:21:04;22.17;;;15.95;;
43606;SDS011;29197;44.788;10.366;2023-02-24T06:23:54;21.42;;;15.07;;
43606;SDS011;29197;44.788;10.366;2023-02-24T06:26:43;21.50;;;14.38;;
43606;SDS011;29197;44.788;10.366;2023-02-24T06:29:32;26.00;;;18.25;;
43606;SDS011;29197;44.788;10.366;2023-02-24T06:32:22;24.92;;;16.27;;
43606;SDS011;29197;44.788;10.366;2023-02-24T06:35:14;24.63;;;16.67;;
43606;SDS011;29197;44.788;10.366;2023-02-24T06:38:03;23.13;;;15.65;;
43606;SDS011;29197;44.788;10.366;2023-02-24T06:40:53;22.40;;;14.80;;
43606;SDS011;29197;44.788;10.366;2023-02-24T06:43:44;20.20;;;13.17;;
43606;SDS011;29197;44.788;10.366;2023-02-24T06:46:34;23.90;;;15.82;;
43606;SDS011;29197;44.788;10.366;2023-02-24T06:49:22;22.63;;;14.48;;
43606;SDS011;29197;44.788;10.366;2023-02-24T06:52:13;20.47;;;13.63;;
43606;SDS011;29197;44.788;10.366;2023-02-24T06:55:05;19.83;;;13.70;;
43606;SDS011;29197;44.788;10.366;2023-02-24T06:58:13;19.48;;;13.05;;
43606;SDS011;29197;44.788;10.366;2023-02-24T07:01:03;19.50;;;13.27;;
43606;SDS011;29197;44.788;10.366;2023-02-24T07:03:53;18.23;;;12.48;;
43606;SDS011;29197;44.788;10.366;2023-02-24T07:07:15;16.83;;;11.87;;
43606;SDS011;29197;44.788;10.366;2023-02-24T07:10:05;20.42;;;12.20;;
43606;SDS011;29197;44.788;10.366;2023-02-24T07:12:54;18.08;;;11.88;;
43606;SDS011;29197;44.788;10.366;2023-02-24T07:15:44;18.38;;;12.15;;
43606;SDS011;29197;44.788;10.366;2023-02-24T07:18:35;15.73;;;11.00;;
43606;SDS011;29197;44.788;10.366;2023-02-24T07:21:26;71.90;;;41.28;;
43606;SDS011;29197;44.788;10.366;2023-02-24T07:24:18;107.95;;;61.10;;
43606;SDS011;29197;44.788;10.366;2023-02-24T07:27:12;108.85;;;61.47;;
43606;SDS011;29197;44.788;10.366;2023-02-24T07:30:08;56.20;;;32.67;;
43606;SDS011;29197;44.788;10.366;2023-02-24T07:32:57;36.35;;;21.20;;
43606;SDS011;29197;44.788;10.366;2023-02-24T07:35:48;25.35;;;14.13;;
43606;SDS011;29197;44.788;10.366;2023-02-24T07:38:37;18.65;;;10.23;;
43606;SDS011;29197;44.788;10.366;2023-02-24T07:41:28;16.08;;;10.32;;
43606;SDS011;29197;44.788;10.366;2023-02-24T07:44:17;17.77;;;9.73;;
43606;SDS011;29197;44.788;10.366;2023-02-24T07:47:06;20.55;;;10.55;;
43606;SDS011;29197;44.788;10.366;2023-02-24T07:49:55;19.77;;;10.00;;
43606;SDS011;29197;44.788;10.366;2023-02-24T07:52:46;19.27;;;9.98;;
43606;SDS011;29197;44.788;10.366;2023-02-24T07:55:35;17.75;;;9.70;;
43606;SDS011;29197;44.788;10.366;2023-02-24T07:58:25;17.30;;;9.60;;
43606;SDS011;29197;44.788;10.366;2023-02-24T08:01:14;13.27;;;8.93;;
43606;SDS011;29197;44.788;10.366;2023-02-24T08:04:09;21.47;;;11.03;;
43606;SDS011;29197;44.788;10.366;2023-02-24T08:07:01;17.27;;;10.77;;
43606;SDS011;29197;44.788;10.366;2023-02-24T08:09:54;17.08;;;9.30;;
43606;SDS011;29197;44.788;10.366;2023-02-24T08:13:09;13.48;;;8.40;;
43606;SDS011;29197;44.788;10.366;2023-02-24T08:16:00;16.88;;;10.30;;
43606;SDS011;29197;44.788;10.366;2023-02-24T08:18:51;14.20;;;9.02;;
43606;SDS011;29197;44.788;10.366;2023-02-24T08:21:43;21.52;;;11.43;;
43606;SDS011;29197;44.788;10.366;2023-02-24T08:24:35;19.45;;;10.80;;
43606;SDS011;29197;44.788;10.366;2023-02-24T08:27:24;14.02;;;9.32;;
43606;SDS011;29197;44.788;10.366;2023-02-24T08:30:16;13.93;;;9.03;;
43606;SDS011;29197;44.788;10.366;2023-02-24T08:33:11;22.02;;;11.50;;
43606;SDS011;29197;44.788;10.366;2023-02-24T08:36:02;20.55;;;11.50;;
43606;SDS011;29197;44.788;10.366;2023-02-24T08:38:51;14.90;;;9.90;;
43606;SDS011;29197;44.788;10.366;2023-02-24T08:41:45;15.07;;;9.63;;
43606;SDS011;29197;44.788;10.366;2023-02-24T08:44:37;14.48;;;9.25;;
43606;SDS011;29197;44.788;10.366;2023-02-24T08:47:28;18.02;;;10.30;;
43606;SDS011;29197;44.788;10.366;2023-02-24T08:50:23;14.30;;;9.55;;
43606;SDS011;29197;44.788;10.366;2023-02-24T08:53:16;14.15;;;10.05;;
43606;SDS011;29197;44.788;10.366;2023-02-24T08:56:05;17.40;;;11.02;;
43606;SDS011;29197;44.788;10.366;2023-02-24T08:58:57;40.53;;;25.88;;
43606;SDS011;29197;44.788;10.366;2023-02-24T09:01:51;22.33;;;15.23;;
43606;SDS011;29197;44.788;10.366;2023-02-24T09:05:00;25.17;;;14.00;;
43606;SDS011;29197;44.788;10.366;2023-02-24T09:07:52;18.55;;;12.45;;
43606;SDS011;29197;44.788;10.366;2023-02-24T09:10:41;17.23;;;11.07;;
43606;SDS011;29197;44.788;10.366;2023-02-24T09:13:32;18.17;;;10.88;;
43606;SDS011;29197;44.788;10.366;2023-02-24T09:16:21;16.73;;;10.85;;
43606;SDS011;29197;44.788;10.366;2023-02-24T09:19:11;15.55;;;11.13;;
43606;SDS011;29197;44.788;10.366;2023-02-24T09:22:26;20.75;;;13.40;;
43606;SDS011;29197;44.788;10.366;2023-02-24T09:25:28;21.90;;;13.73;;
43606;SDS011;29197;44.788;10.366;2023-02-24T09:28:27;22.38;;;13.57;;
43606;SDS011;29197;44.788;10.366;2023-02-24T09:31:18;21.88;;;13.20;;
43606;SDS011;29197;44.788;10.366;2023-02-24T09:34:10;17.85;;;12.20;;
43606;SDS011;29197;44.788;10.366;2023-02-24T09:37:04;18.77;;;12.90;;
43606;SDS011;29197;44.788;10.366;2023-02-24T09:40:10;16.00;;;10.88;;
43606;SDS011;29197;44.788;10.366;2023-02-24T09:43:26;21.88;;;13.88;;
43606;SDS011;29197;44.788;10.366;2023-02-24T09:46:16;20.67;;;13.27;;
43606;SDS011;29197;44.788;10.366;2023-02-24T09:49:07;16.30;;;12.25;;
43606;SDS011;29197;44.788;10.366;2023-02-24T09:51:59;20.58;;;13.90;;
43606;SDS011;29197;44.788;10.366;2023-02-24T09:54:54;18.58;;;12.68;;
43606;SDS011;29197;44.788;10.366;2023-02-24T09:57:57;21.45;;;13.25;;
43606;SDS011;29197;44.788;10.366;2023-02-24T10:01:08;20.23;;;12.95;;
43606;SDS011;29197;44.788;10.366;2023-02-24T10:04:14;22.92;;;14.25;;
43606;SDS011;29197;44.788;10.366;2023-02-24T10:07:09;18.13;;;11.80;;
43606;SDS011;29197;44.788;10.366;2023-02-24T10:10:00;15.63;;;11.50;;
43606;SDS011;29197;44.788;10.366;2023-02-24T10:13:06;18.23;;;12.68;;
43606;SDS011;29197;44.788;10.366;2023-02-24T10:16:00;18.58;;;11.80;;
43606;SDS011;29197;44.788;10.366;2023-02-24T10:18:54;17.00;;;12.18;;
43606;SDS011;29197;44.788;10.366;2023-02-24T10:21:58;20.38;;;13.40;;
43606;SDS011;29197;44.788;10.366;2023-02-24T10:24:49;18.77;;;13.25;;
43606;SDS011;29197;44.788;10.366;2023-02-24T10:27:50;20.55;;;14.85;;
43606;SDS011;29197;44.788;10.366;2023-02-24T10:30:44;18.92;;;12.82;;
43606;SDS011;29197;44.788;10.366;2023-02-24T10:33:36;16.10;;;11.80;;
43606;SDS011;29197;44.788;10.366;2023-02-24T10:36:32;19.80;;;13.65;;
43606;SDS011;29197;44.788;10.366;2023-02-24T10:39:22;15.60;;;11.45;;
43606;SDS011;29197;44.788;10.366;2023-02-24T10:42:20;17.60;;;12.18;;
43606;SDS011;29197;44.788;10.366;2023-02-24T10:45:12;19.70;;;13.43;;
43606;SDS011;29197;44.788;10.366;2023-02-24T10:48:05;19.77;;;13.70;;
43606;SDS011;29197;44.788;10.366;2023-02-24T10:50:55;21.30;;;14.55;;
43606;SDS011;29197;44.788;10.366;2023-02-24T10:54:02;20.98;;;14.85;;
43606;SDS011;29197;44.788;10.366;2023-02-24T10:57:09;17.95;;;14.35;;
43606;SDS011;29197;44.788;10.366;2023-02-24T11:00:05;23.87;;;16.63;;
43606;SDS011;29197;44.788;10.366;2023-02-24T11:03:20;19.48;;;13.40;;
43606;SDS011;29197;44.788;10.366;2023-02-24T11:06:22;17.47;;;13.00;;
43606;SDS011;29197;44.788;10.366;2023-02-24T11:09:27;20.57;;;15.20;;
43606;SDS011;29197;44.788;10.366;2023-02-24T11:12:29;20.75;;;14.10;;
43606;SDS011;29197;44.788;10.366;2023-02-24T11:15:44;22.35;;;16.42;;
43606;SDS011;29197;44.788;10.366;2023-02-24T11:18:53;20.58;;;15.27;;
43606;SDS011;29197;44.788;10.366;2023-02-24T11:21:42;20.70;;;15.23;;
43606;SDS011;29197;44.788;10.366;2023-02-24T11:24:34;22.27;;;15.90;;
43606;SDS011;29197;44.788;10.366;2023-02-24T11:27:23;20.55;;;14.95;;
43606;SDS011;29197;44.788;10.366;2023-02-24T11:30:15;23.67;;;16.73;;
43606;SDS011;29197;44.788;10.366;2023-02-24T11:33:18;23.92;;;15.57;;
43606;SDS011;29197;44.788;10.366;2023-02-24T11:36:16;23.58;;;16.75;;
43606;SDS011;29197;44.788;10.366;2023-02-24T11:39:22;20.55;;;15.20;;
43606;SDS011;29197;44.788;10.366;2023-02-24T11:42:30;24.17;;;16.05;;
43606;SDS011;29197;44.788;10.366;2023-02-24T11:45:27;25.27;;;17.40;;
43606;SDS011;29197;44.788;10.366;2023-02-24T11:48:20;24.23;;;17.05;;
43606;SDS011;29197;44.788;10.366;2023-02-24T11:51:14;29.02;;;19.70;;
43606;SDS011;29197;44.788;10.366;2023-02-24T11:54:07;22.10;;;15.93;;
43606;SDS011;29197;44.788;10.366;2023-02-24T11:56:59;23.63;;;16.45;;
43606;SDS011;29197;44.788;10.366;2023-02-24T11:59:50;22.80;;;16.83;;
43606;SDS011;29197;44.788;10.366;2023-02-24T12:02:48;26.42;;;17.73;;
43606;SDS011;29197;44.788;10.366;2023-02-24T12:05:40;20.40;;;15.27;;
43606;SDS011;29197;44.788;10.366;2023-02-24T12:08:32;23.55;;;16.45;;
43606;SDS011;29197;44.788;10.366;2023-02-24T12:11:25;21.92;;;16.10;;
43606;SDS011;29197;44.788;10.366;2023-02-24T12:14:23;26.23;;;18.03;;
43606;SDS011;29197;44.788;10.366;2023-02-24T12:17:15;27.70;;;19.10;;
43606;SDS011;29197;44.788;10.366;2023-02-24T12:20:05;28.03;;;20.30;;
43606;SDS011;29197;44.788;10.366;2023-02-24T12:23:01;21.95;;;15.18;;
43606;SDS011;29197;44.788;10.366;2023-02-24T12:25:55;23.17;;;16.25;;
43606;SDS011;29197;44.788;10.366;2023-02-24T12:28:59;23.63;;;16.37;;
43606;SDS011;29197;44.788;10.366;2023-02-24T12:31:54;31.52;;;19.98;;
43606;SDS011;29197;44.788;10.366;2023-02-24T12:34:52;29.00;;;20.85;;
43606;SDS011;29197;44.788;10.366;2023-02-24T12:37:55;24.50;;;16.38;;
43606;SDS011;29197;44.788;10.366;2023-02-24T12:40:53;23.60;;;15.80;;
43606;SDS011;29197;44.788;10.366;2023-02-24T12:43:44;22.67;;;15.77;;
43606;SDS011;29197;44.788;10.366;2023-02-24T12:46:37;24.13;;;16.83;;
43606;SDS011;29197;44.788;10.366;2023-02-24T12:49:34;29.40;;;20.30;;
43606;SDS011;29197;44.788;10.366;2023-02-24T12:52:44;33.85;;;22.23;;
43606;SDS011;29197;44.788;10.366;2023-02-24T12:55:42;32.35;;;22.08;;
43606;SDS011;29197;44.788;10.366;2023-02-24T12:58:37;35.35;;;22.48;;
43606;SDS011;29197;44.788;10.366;2023-02-24T13:01:31;31.10;;;19.65;;
43606;SDS011;29197;44.788;10.366;2023-02-24T13:04:35;29.37;;;18.63;;
43606;SDS011;29197;44.788;10.366;2023-02-24T13:07:33;26.83;;;18.30;;
43606;SDS011;29197;44.788;10.366;2023-02-24T13:10:33;23.30;;;15.18;;
43606;SDS011;29197;44.788;10.366;2023-02-24T13:13:30;19.77;;;13.55;;
43606;SDS011;29197;44.788;10.366;2023-02-24T13:16:27;60.20;;;36.05;;
43606;SDS011;29197;44.788;10.366;2023-02-24T13:19:17;33.17;;;21.95;;
43606;SDS011;29197;44.788;10.366;2023-02-24T13:22:18;23.50;;;16.58;;
43606;SDS011;29197;44.788;10.366;2023-02-24T13:25:16;18.88;;;13.40;;
43606;SDS011;29197;44.788;10.366;2023-02-24T13:28:20;21.83;;;14.03;;
43606;SDS011;29197;44.788;10.366;2023-02-24T13:31:10;29.45;;;18.55;;
43606;SDS011;29197;44.788;10.366;2023-02-24T13:33:59;28.45;;;18.25;;
43606;SDS011;29197;44.788;10.366;2023-02-24T13:36:59;24.75;;;17.23;;
43606;SDS011;29197;44.788;10.366;2023-02-24T13:39:49;24.37;;;16.90;;
43606;SDS011;29197;44.788;10.366;2023-02-24T13:42:38;27.50;;;17.48;;
43606;SDS011;29197;44.788;10.366;2023-02-24T13:45:28;22.33;;;15.17;;
43606;SDS011;29197;44.788;10.366;2023-02-24T13:48:20;24.90;;;16.63;;
43606;SDS011;29197;44.788;10.366;2023-02-24T13:51:21;25.65;;;17.52;;
43606;SDS011;29197;44.788;10.366;2023-02-24T13:54:16;27.33;;;17.13;;
43606;SDS011;29197;44.788;10.366;2023-02-24T13:57:15;20.77;;;14.50;;
43606;SDS011;29197;44.788;10.366;2023-02-24T14:00:07;29.77;;;18.60;;
43606;SDS011;29197;44.788;10.366;2023-02-24T14:03:09;23.75;;;15.95;;
43606;SDS011;29197;44.788;10.366;2023-02-24T14:05:58;22.88;;;16.05;;
43606;SDS011;29197;44.788;10.366;2023-02-24T14:08:48;27.17;;;17.23;;
43606;SDS011;29197;44.788;10.366;2023-02-24T14:11:39;19.75;;;13.30;;
43606;SDS011;29197;44.788;10.366;2023-02-24T14:14:30;24.42;;;16.23;;
43606;SDS011;29197;44.788;10.366;2023-02-24T14:17:20;23.23;;;15.35;;
43606;SDS011;29197;44.788;10.366;2023-02-24T14:20:16;22.85;;;16.13;;
43606;SDS011;29197;44.788;10.366;2023-02-24T14:23:18;19.33;;;13.80;;
43606;SDS011;29197;44.788;10.366;2023-02-24T14:26:10;22.98;;;14.75;;
43606;SDS011;29197;44.788;10.366;2023-02-24T14:29:01;24.05;;;16.00;;
43606;SDS011;29197;44.788;10.366;2023-02-24T14:31:52;15.73;;;11.80;;
43606;SDS011;29197;44.788;10.366;2023-02-24T14:34:44;14.50;;;11.02;;
43606;SDS011;29197;44.788;10.366;2023-02-24T14:37:33;19.45;;;11.98;;
43606;SDS011;29197;44.788;10.366;2023-02-24T14:40:22;16.17;;;12.27;;
43606;SDS011;29197;44.788;10.366;2023-02-24T14:43:12;15.52;;;10.70;;
43606;SDS011;29197;44.788;10.366;2023-02-24T14:46:03;16.00;;;11.77;;
43606;SDS011;29197;44.788;10.366;2023-02-24T14:48:54;18.45;;;12.30;;
43606;SDS011;29197;44.788;10.366;2023-02-24T14:51:44;19.15;;;12.85;;
43606;SDS011;29197;44.788;10.366;2023-02-24T14:54:36;17.90;;;12.05;;
43606;SDS011;29197;44.788;10.366;2023-02-24T14:57:29;21.10;;;14.47;;
43606;SDS011;29197;44.788;10.366;2023-02-24T15:00:19;22.47;;;14.33;;
43606;SDS011;29197;44.788;10.366;2023-02-24T15:03:11;15.93;;;11.30;;
43606;SDS011;29197;44.788;10.366;2023-02-24T15:06:05;20.88;;;13.23;;
43606;SDS011;29197;44.788;10.366;2023-02-24T15:08:54;22.88;;;13.77;;
43606;SDS011;29197;44.788;10.366;2023-02-24T15:11:45;17.17;;;11.55;;
43606;SDS011;29197;44.788;10.366;2023-02-24T15:14:34;17.75;;;11.52;;
43606;SDS011;29197;44.788;10.366;2023-02-24T15:17:22;16.08;;;11.18;;
43606;SDS011;29197;44.788;10.366;2023-02-24T15:20:25;16.45;;;11.25;;
43606;SDS011;29197;44.788;10.366;2023-02-24T15:23:25;15.93;;;11.85;;
43606;SDS011;29197;44.788;10.366;2023-02-24T15:26:24;16.05;;;12.05;;
43606;SDS011;29197;44.788;10.366;2023-02-24T15:29:18;17.30;;;12.32;;
43606;SDS011;29197;44.788;10.366;2023-02-24T15:32:12;16.30;;;11.93;;
43606;SDS011;29197;44.788;10.366;2023-02-24T15:35:02;19.48;;;14.15;;
43606;SDS011;29197;44.788;10.366;2023-02-24T15:37:51;20.07;;;13.00;;
43606;SDS011;29197;44.788;10.366;2023-02-24T15:40:42;20.73;;;13.95;;
43606;SDS011;29197;44.788;10.366;2023-02-24T15:43:43;25.85;;;16.75;;
43606;SDS011;29197;44.788;10.366;2023-02-24T15:46:33;21.80;;;14.82;;
43606;SDS011;29197;44.788;10.366;2023-02-24T15:49:22;21.02;;;15.20;;
43606;SDS011;29197;44.788;10.366;2023-02-24T15:52:11;27.15;;;17.42;;
43606;SDS011;29197;44.788;10.366;2023-02-24T15:55:00;30.45;;;19.70;;
43606;SDS011;29197;44.788;10.366;2023-02-24T15:57:56;21.33;;;14.45;;
43606;SDS011;29197;44.788;10.366;2023-02-24T16:00:46;22.48;;;15.20;;
43606;SDS011;29197;44.788;10.366;2023-02-24T16:03:38;22.95;;;16.05;;
43606;SDS011;29197;44.788;10.366;2023-02-24T16:06:27;27.30;;;18.17;;
43606;SDS011;29197;44.788;10.366;2023-02-24T16:09:16;12.20;;;6.75;;
43606;SDS011;29197;44.788;10.366;2023-02-24T16:12:07;7.65;;;3.97;;
43606;SDS011;29197;44.788;10.366;2023-02-24T16:15:02;10.00;;;4.00;;
43606;SDS011;29197;44.788;10.366;2023-02-24T16:17:53;9.40;;;3.30;;
43606;SDS011;29197;44.788;10.366;2023-02-24T16:20:43;5.03;;;3.47;;
43606;SDS011;29197;44.788;10.366;2023-02-24T16:23:34;7.78;;;3.15;;
43606;SDS011;29197;44.788;10.366;2023-02-24T16:26:27;5.00;;;3.20;;
43606;SDS011;29197;44.788;10.366;2023-02-24T16:29:16;6.82;;;3.80;;
43606;SDS011;29197;44.788;10.366;2023-02-24T16:32:07;5.73;;;3.33;;
43606;SDS011;29197;44.788;10.366;2023-02-24T16:34:57;9.38;;;3.85;;
43606;SDS011;29197;44.788;10.366;2023-02-24T16:37:46;7.70;;;4.20;;
43606;SDS011;29197;44.788;10.366;2023-02-24T16:40:35;9.80;;;4.15;;
43606;SDS011;29197;44.788;10.366;2023-02-24T16:43:24;10.05;;;4.60;;